TimeCST,TemperatureF,Dew PointF,Humidity,Sea Level PressureIn,VisibilityMPH,Wind Direction,Wind SpeedMPH,Gust SpeedMPH,PrecipitationIn,Events,Conditions,WindDirDegrees,DateUTC
12:15 AM,35.2,33.1,92,30.28,10.0,Calm,Calm,-,N/A,,Clear,0,2013-01-06 06:15:00
12:35 AM,33.4,32.0,94,30.28,10.0,Calm,Calm,-,N/A,,Clear,0,2013-01-06 06:35:00
12:55 AM,33.1,32.0,96,30.28,7.0,Calm,Calm,-,N/A,,Clear,0,2013-01-06 06:55:00
1:15 AM,33.8,32.2,94,30.28,10.0,Calm,Calm,-,N/A,,Clear,0,2013-01-06 07:15:00
1:35 AM,32.0,31.3,97,30.29,5.0,NNW,3.5,-,N/A,,Clear,340,2013-01-06 07:35:00
1:55 AM,32.2,30.9,95,30.29,7.0,Calm,Calm,-,N/A,,Clear,0,2013-01-06 07:55:00
2:15 AM,30.4,29.3,96,30.30,5.0,Calm,Calm,-,N/A,,Clear,0,2013-01-06 08:15:00
2:35 AM,33.6,32.5,96,30.30,10.0,Calm,Calm,-,N/A,,Clear,0,2013-01-06 08:35:00
2:55 AM,32.9,32.0,96,30.30,7.0,Calm,Calm,-,N/A,,Clear,0,2013-01-06 08:55:00
3:15 AM,32.0,31.1,96,30.30,5.0,Calm,Calm,-,N/A,,Clear,0,2013-01-06 09:15:00
3:35 AM,30.4,29.5,96,30.30,5.0,West,3.5,-,N/A,,Clear,280,2013-01-06 09:35:00
3:55 AM,31.5,30.7,97,30.30,7.0,WNW,3.5,-,N/A,,Clear,290,2013-01-06 09:55:00
4:15 AM,31.1,30.2,96,30.29,7.0,West,3.5,-,N/A,,Clear,270,2013-01-06 10:15:00
4:35 AM,32.0,31.6,99,30.29,7.0,WNW,5.8,-,N/A,,Clear,290,2013-01-06 10:35:00
4:55 AM,32.0,31.1,96,30.28,7.0,West,5.8,-,N/A,,Clear,280,2013-01-06 10:55:00
5:15 AM,30.9,29.8,96,30.29,5.0,WNW,6.9,-,N/A,,Clear,290,2013-01-06 11:15:00
5:35 AM,30.0,29.1,96,30.29,4.0,WNW,6.9,-,N/A,,Clear,290,2013-01-06 11:35:00
5:55 AM,29.1,28.2,96,30.30,4.0,WNW,8.1,-,N/A,,Clear,300,2013-01-06 11:55:00
6:15 AM,29.1,28.2,96,30.30,5.0,WNW,6.9,-,N/A,,Clear,300,2013-01-06 12:15:00
6:35 AM,29.3,28.2,96,30.31,7.0,WNW,8.1,-,N/A,,Clear,300,2013-01-06 12:35:00
6:55 AM,28.9,27.3,94,30.31,10.0,WNW,5.8,-,N/A,,Clear,300,2013-01-06 12:55:00
7:15 AM,29.3,27.3,92,30.32,10.0,WNW,5.8,-,N/A,,Clear,300,2013-01-06 13:15:00
7:35 AM,28.9,26.2,90,30.34,10.0,WNW,4.6,-,N/A,,Clear,300,2013-01-06 13:35:00
7:55 AM,28.9,26.4,90,30.34,10.0,WNW,5.8,-,N/A,,Clear,300,2013-01-06 13:55:00
8:35 AM,32.0,29.3,90,30.35,10.0,WNW,5.8,-,N/A,,Clear,290,2013-01-06 14:35:00
8:55 AM,33.1,29.8,88,30.36,10.0,NW,5.8,-,N/A,,Clear,310,2013-01-06 14:55:00
9:15 AM,35.4,30.0,81,30.36,10.0,NW,5.8,-,N/A,,Clear,320,2013-01-06 15:15:00
9:35 AM,37.2,31.1,79,30.37,10.0,NW,5.8,-,N/A,,Clear,320,2013-01-06 15:35:00
9:55 AM,39.0,31.1,73,30.37,10.0,NNW,5.8,-,N/A,,Clear,330,2013-01-06 15:55:00
10:15 AM,41.4,29.7,63,30.37,10.0,NNW,9.2,-,N/A,,Clear,340,2013-01-06 16:15:00
10:35 AM,42.6,27.3,55,30.37,10.0,North,8.1,-,N/A,,Clear,360,2013-01-06 16:35:00
10:55 AM,44.2,27.7,52,30.37,10.0,North,8.1,-,N/A,,Clear,360,2013-01-06 16:55:00
11:15 AM,45.5,27.1,49,30.37,10.0,NNW,5.8,-,N/A,,Clear,330,2013-01-06 17:15:00
11:35 AM,46.8,26.1,44,30.36,10.0,NNW,9.2,-,N/A,,Clear,340,2013-01-06 17:35:00
11:55 AM,49.1,24.3,38,30.36,10.0,NNE,5.8,-,N/A,,Clear,30,2013-01-06 17:55:00
12:15 PM,50.0,21.4,32,30.35,10.0,North,8.1,-,N/A,,Clear,350,2013-01-06 18:15:00
12:35 PM,50.9,20.5,30,30.34,10.0,North,13.8,-,N/A,,Clear,350,2013-01-06 18:35:00
12:55 PM,52.0,19.6,28,30.33,10.0,NNW,12.7,-,N/A,,Clear,340,2013-01-06 18:55:00
1:15 PM,52.5,18.5,26,30.32,10.0,North,11.5,-,N/A,,Clear,350,2013-01-06 19:15:00
1:35 PM,53.4,16.5,23,30.31,10.0,North,11.5,18.4,N/A,,Clear,360,2013-01-06 19:35:00
1:55 PM,53.6,18.0,25,30.31,10.0,North,12.7,16.1,N/A,,Clear,350,2013-01-06 19:55:00
2:15 PM,53.8,18.7,25,30.31,10.0,NNW,12.7,-,N/A,,Clear,340,2013-01-06 20:15:00
2:35 PM,54.1,19.0,25,30.31,10.0,North,12.7,-,N/A,,Clear,350,2013-01-06 20:35:00
2:55 PM,54.5,19.2,25,30.31,10.0,NNW,9.2,-,N/A,,Clear,340,2013-01-06 20:55:00
3:15 PM,54.1,18.0,24,30.31,10.0,North,8.1,-,N/A,,Clear,350,2013-01-06 21:15:00
3:35 PM,54.3,18.3,24,30.31,10.0,North,8.1,-,N/A,,Clear,350,2013-01-06 21:35:00
3:55 PM,54.1,18.0,24,30.32,10.0,NNW,9.2,-,N/A,,Clear,330,2013-01-06 21:55:00
4:35 PM,52.7,18.7,26,30.32,10.0,North,6.9,-,N/A,,Clear,350,2013-01-06 22:35:00
4:55 PM,51.4,19.0,28,30.31,10.0,North,5.8,-,N/A,,Clear,350,2013-01-06 22:55:00
5:15 PM,49.6,19.0,30,30.31,10.0,NNW,5.8,-,N/A,,Clear,340,2013-01-06 23:15:00
5:35 PM,47.1,19.6,34,30.32,10.0,North,5.8,-,N/A,,Clear,350,2013-01-06 23:35:00
5:55 PM,45.7,19.8,36,30.32,10.0,NNW,6.9,-,N/A,,Clear,340,2013-01-06 23:55:00
6:15 PM,44.8,19.9,37,30.31,10.0,North,6.9,-,N/A,,Clear,360,2013-01-07 00:15:00
6:35 PM,43.7,19.4,38,30.32,10.0,North,5.8,-,N/A,,Clear,350,2013-01-07 00:35:00
6:55 PM,41.9,19.4,41,30.33,10.0,Calm,Calm,-,N/A,,Clear,0,2013-01-07 00:55:00
7:15 PM,42.8,19.4,39,30.32,10.0,North,3.5,-,N/A,,Clear,10,2013-01-07 01:15:00
7:35 PM,41.7,19.4,41,30.33,10.0,Calm,Calm,-,N/A,,Clear,0,2013-01-07 01:35:00
7:55 PM,41.4,19.4,41,30.33,10.0,North,3.5,-,N/A,,Clear,360,2013-01-07 01:55:00
8:15 PM,41.2,19.0,41,30.33,10.0,North,3.5,-,N/A,,Clear,360,2013-01-07 02:15:00
8:35 PM,39.7,18.9,43,30.34,10.0,North,3.5,-,N/A,,Clear,360,2013-01-07 02:35:00
9:15 PM,38.3,19.0,46,30.34,10.0,NNW,4.6,-,N/A,,Clear,340,2013-01-07 03:15:00
9:55 PM,37.4,19.4,48,30.35,10.0,NNW,4.6,-,N/A,,Clear,340,2013-01-07 03:55:00
10:15 PM,36.9,19.4,49,30.35,10.0,North,4.6,-,N/A,,Clear,350,2013-01-07 04:15:00
10:35 PM,36.9,19.8,50,30.35,10.0,NNE,3.5,-,N/A,,Clear,20,2013-01-07 04:35:00
10:55 PM,36.5,19.9,51,30.35,10.0,NNE,3.5,-,N/A,,Clear,20,2013-01-07 04:55:00
11:35 PM,36.1,20.1,52,30.35,10.0,Calm,Calm,-,N/A,,Clear,0,2013-01-07 05:35:00
11:55 PM,34.9,20.3,55,30.35,10.0,North,3.5,-,N/A,,Clear,10,2013-01-07 05:55:00